createdAt,value
2023-02-22T00:02:13.275Z,5.27
2023-02-22T00:04:59.209Z,5.27
2023-02-22T00:07:52.498Z,5.28
2023-02-22T00:10:39.708Z,5.28
2023-02-22T00:13:32.169Z,5.26
2023-02-22T00:16:27.875Z,5.24
2023-02-22T00:19:20.648Z,5.19
2023-02-22T00:22:14.433Z,5.15
2023-02-22T00:25:07.572Z,5.12
2023-02-22T00:28:02.277Z,5.10
2023-02-22T00:30:55.557Z,5.06
2023-02-22T00:33:44.005Z,5.03
2023-02-22T00:36:36.850Z,5.02
2023-02-22T00:39:30.380Z,5.05
2023-02-22T00:42:23.205Z,5.09
2023-02-22T00:45:20.546Z,5.14
2023-02-22T00:48:05.344Z,5.14
2023-02-22T00:50:59.499Z,5.13
2023-02-22T00:53:52.300Z,5.11
2023-02-22T00:56:45.075Z,5.08
2023-02-22T00:59:38.159Z,5.05
2023-02-22T01:02:31.000Z,5.00
2023-02-22T01:05:25.926Z,4.97
2023-02-22T01:08:20.145Z,4.94
2023-02-22T01:11:12.908Z,4.93
2023-02-22T01:14:09.762Z,4.94
2023-02-22T01:17:02.592Z,4.97
2023-02-22T01:19:56.089Z,5.02
2023-02-22T01:22:50.907Z,5.06
2023-02-22T01:25:43.593Z,5.05
2023-02-22T01:28:36.876Z,5.02
2023-02-22T01:31:29.702Z,4.99
2023-02-22T01:34:23.124Z,4.97
2023-02-22T01:37:15.917Z,4.93
2023-02-22T01:40:11.580Z,4.89
2023-02-22T01:43:06.567Z,4.85
2023-02-22T01:46:05.279Z,4.83
2023-02-22T01:49:02.042Z,4.85
2023-02-22T01:51:57.999Z,4.88
2023-02-22T01:54:53.685Z,4.91
2023-02-22T01:57:47.552Z,4.93
2023-02-22T02:00:41.187Z,4.91
2023-02-22T02:03:38.793Z,4.89
2023-02-22T02:06:24.186Z,4.87
2023-02-22T02:09:24.553Z,4.85
2023-02-22T02:12:18.561Z,4.81
2023-02-22T02:15:29.406Z,4.73
2023-02-22T02:18:22.344Z,4.68
2023-02-22T02:21:43.991Z,4.67
2023-02-22T02:25:08.938Z,4.67
2023-02-22T02:28:34.734Z,4.70
2023-02-22T02:32:18.247Z,4.74
2023-02-22T02:35:00.332Z,4.79
2023-02-22T02:38:04.260Z,4.81
2023-02-22T02:41:04.959Z,4.82
2023-02-22T02:44:00.088Z,4.82
2023-02-22T02:46:57.753Z,4.81
2023-02-22T02:49:57.350Z,4.79
2023-02-22T02:52:45.919Z,4.77
2023-02-22T02:55:40.731Z,4.76
2023-02-22T02:58:33.897Z,4.76
2023-02-22T03:01:46.654Z,4.77
2023-02-22T03:05:08.645Z,4.80
2023-02-22T03:08:11.105Z,4.83
2023-02-22T03:11:16.247Z,4.88
2023-02-22T03:14:17.866Z,4.93
2023-02-22T03:17:37.073Z,4.96
2023-02-22T03:20:31.995Z,5.02
2023-02-22T03:23:32.509Z,5.01
2023-02-22T03:26:28.973Z,4.99
2023-02-22T03:29:26.357Z,4.97
2023-02-22T03:32:23.025Z,4.95
2023-02-22T03:35:30.689Z,4.92
2023-02-22T03:38:27.562Z,4.89
2023-02-22T03:41:25.315Z,4.85
2023-02-22T03:44:23.267Z,4.82
2023-02-22T03:47:19.380Z,4.81
2023-02-22T03:50:18.161Z,4.82
2023-02-22T03:53:11.100Z,4.84
2023-02-22T03:56:08.679Z,4.83
2023-02-22T03:59:01.692Z,4.86
2023-02-22T04:01:47.346Z,4.89
2023-02-22T04:04:40.148Z,4.92
2023-02-22T04:07:33.071Z,4.91
2023-02-22T04:10:24.904Z,4.90
2023-02-22T04:13:19.178Z,4.86
2023-02-22T04:16:07.526Z,4.80
2023-02-22T04:19:01.915Z,4.74
2023-02-22T04:21:54.727Z,4.69
2023-02-22T04:24:50.409Z,4.65
2023-02-22T04:27:36.400Z,4.64
2023-02-22T04:30:22.759Z,4.65
2023-02-22T04:33:16.257Z,4.67
2023-02-22T04:36:10.861Z,4.69
2023-02-22T04:39:03.997Z,4.70
2023-02-22T04:41:56.763Z,4.72
2023-02-22T04:44:50.187Z,4.71
2023-02-22T04:47:42.950Z,4.67
2023-02-22T04:50:35.930Z,4.63
2023-02-22T04:53:27.698Z,4.60
2023-02-22T04:56:21.972Z,4.54
2023-02-22T04:59:15.503Z,4.51
2023-02-22T05:02:08.310Z,4.50
2023-02-22T05:05:01.135Z,4.52
2023-02-22T05:07:54.041Z,4.56
2023-02-22T05:10:46.820Z,4.60
2023-02-22T05:13:39.813Z,4.63
2023-02-22T05:16:32.698Z,4.66
2023-02-22T05:19:25.839Z,4.64
2023-02-22T05:22:18.971Z,4.61
2023-02-22T05:25:12.371Z,4.56
2023-02-22T05:28:09.188Z,4.52
2023-02-22T05:31:01.961Z,4.47
2023-02-22T05:33:56.049Z,4.45
2023-02-22T05:36:49.300Z,4.45
2023-02-22T05:39:31.607Z,4.49
2023-02-22T05:42:15.640Z,4.54
2023-02-22T05:45:10.341Z,4.60
2023-02-22T05:48:03.802Z,4.68
2023-02-22T05:50:56.738Z,4.72
2023-02-22T05:53:52.184Z,4.75
2023-02-22T05:56:45.011Z,4.74
2023-02-22T05:59:38.253Z,4.70
2023-02-22T06:02:31.300Z,4.68
2023-02-22T06:05:24.801Z,4.68
2023-02-22T06:08:18.285Z,4.67
2023-02-22T06:11:11.674Z,4.69
2023-02-22T06:13:58.107Z,4.71
2023-02-22T06:16:55.471Z,4.77
2023-02-22T06:19:31.312Z,4.83
2023-02-22T06:22:24.505Z,4.92
2023-02-22T06:25:19.434Z,5.05
2023-02-22T06:28:12.577Z,5.14
2023-02-22T06:31:05.947Z,5.21
2023-02-22T06:33:59.154Z,5.26
2023-02-22T06:36:40.576Z,5.29
2023-02-22T06:39:33.714Z,5.31
2023-02-22T06:42:28.155Z,5.35
2023-02-22T06:45:14.306Z,5.39
2023-02-22T06:48:09.435Z,5.39
2023-02-22T06:51:02.397Z,5.40
2023-02-22T06:53:47.809Z,5.44
2023-02-22T06:56:40.979Z,5.51
2023-02-22T06:59:16.755Z,5.60
2023-02-22T07:02:04.141Z,5.69
2023-02-22T07:04:57.524Z,5.80
2023-02-22T07:07:43.547Z,5.89
2023-02-22T07:10:38.249Z,5.97
2023-02-22T07:13:31.723Z,6.01
2023-02-22T07:16:24.903Z,6.02
2023-02-22T07:19:18.740Z,6.06
2023-02-22T07:22:11.659Z,6.13
2023-02-22T07:24:57.147Z,6.20
2023-02-22T07:27:50.069Z,6.27
2023-02-22T07:30:43.810Z,6.35
2023-02-22T07:33:36.784Z,6.42
2023-02-22T07:36:29.874Z,6.50
2023-02-22T07:39:22.942Z,6.56
2023-02-22T07:42:15.882Z,6.64
2023-02-22T07:45:01.268Z,6.69
2023-02-22T07:47:54.955Z,6.79
2023-02-22T07:50:32.337Z,6.86
2023-02-22T07:53:30.280Z,6.92
2023-02-22T07:56:11.405Z,6.96
2023-02-22T07:58:57.789Z,7.01
2023-02-22T08:01:52.431Z,7.06
2023-02-22T08:04:39.897Z,7.15
2023-02-22T08:07:32.828Z,7.26
2023-02-22T08:10:28.190Z,7.34
2023-02-22T08:13:22.307Z,7.45
2023-02-22T08:16:15.701Z,7.54
2023-02-22T08:18:59.886Z,7.60
2023-02-22T08:21:52.959Z,7.60
2023-02-22T08:24:46.250Z,7.65
2023-02-22T08:27:39.406Z,7.65
2023-02-22T08:30:33.638Z,7.58
2023-02-22T08:33:15.311Z,7.59
2023-02-22T08:36:01.809Z,7.67
2023-02-22T08:38:45.996Z,7.77
2023-02-22T08:41:40.923Z,7.85
2023-02-22T08:44:27.694Z,8.02
2023-02-22T08:47:14.645Z,8.10
2023-02-22T08:49:52.440Z,8.11
2023-02-22T08:52:35.500Z,8.05
2023-02-22T08:55:30.656Z,8.05
2023-02-22T08:58:18.131Z,8.07
2023-02-22T09:01:10.954Z,8.06
2023-02-22T09:04:04.092Z,8.01
2023-02-22T09:06:57.336Z,7.96
2023-02-22T09:09:50.386Z,7.89
2023-02-22T09:12:43.200Z,7.87
2023-02-22T09:15:37.567Z,7.83
2023-02-22T09:18:21.275Z,7.72
2023-02-22T09:21:08.499Z,7.67
2023-02-22T09:23:54.791Z,7.61
2023-02-22T09:26:54.680Z,7.51
2023-02-22T09:29:48.885Z,7.43
2023-02-22T09:32:43.324Z,7.32
2023-02-22T09:35:36.859Z,7.25
2023-02-22T09:38:32.909Z,7.28
2023-02-22T09:41:16.952Z,7.35
2023-02-22T09:44:20.388Z,7.44
2023-02-22T09:47:19.583Z,7.57
2023-02-22T09:50:15.733Z,7.74
2023-02-22T09:53:22.089Z,7.92
2023-02-22T09:56:19.261Z,7.97
2023-02-22T09:59:23.820Z,7.98
2023-02-22T10:02:24.918Z,8.06
2023-02-22T10:05:22.663Z,8.06
2023-02-22T10:08:15.125Z,8.05
2023-02-22T10:11:20.617Z,7.99
2023-02-22T10:14:44.297Z,7.95
2023-02-22T10:17:42.146Z,7.97
2023-02-22T10:20:41.111Z,7.94
2023-02-22T10:23:41.019Z,7.91
2023-02-22T10:26:37.934Z,7.90
2023-02-22T10:29:40.016Z,7.95
2023-02-22T10:32:38.794Z,7.96
2023-02-22T10:35:29.045Z,8.10
2023-02-22T10:38:24.742Z,8.28
2023-02-22T10:41:29.292Z,8.25
2023-02-22T10:44:22.216Z,8.29
2023-02-22T10:47:20.010Z,8.26
2023-02-22T10:50:16.820Z,8.21
2023-02-22T10:53:10.364Z,8.20
2023-02-22T10:56:26.078Z,8.23
2023-02-22T10:59:32.939Z,8.29
2023-02-22T11:02:30.465Z,8.38
2023-02-22T11:05:36.986Z,8.38
2023-02-22T11:08:33.188Z,8.37
2023-02-22T11:11:29.524Z,8.37
2023-02-22T11:14:32.034Z,8.47
2023-02-22T11:17:32.739Z,8.53
2023-02-22T11:20:27.636Z,8.46
2023-02-22T11:23:24.657Z,8.45
2023-02-22T11:26:21.404Z,8.44
2023-02-22T11:29:33.926Z,8.32
2023-02-22T11:32:27.308Z,8.25
2023-02-22T11:35:38.690Z,8.20
2023-02-22T11:38:25.792Z,8.20
2023-02-22T11:41:23.331Z,8.17
2023-02-22T11:44:24.257Z,8.19
2023-02-22T11:47:17.407Z,8.21
2023-02-22T11:50:20.042Z,8.22
2023-02-22T11:53:44.895Z,8.26
2023-02-22T11:56:38.386Z,8.19
2023-02-22T11:59:38.099Z,8.24
2023-02-22T12:02:57.405Z,8.44
2023-02-22T12:06:07.119Z,8.61
2023-02-22T12:09:09.978Z,8.73
2023-02-22T12:12:15.878Z,8.75
2023-02-22T12:15:17.290Z,8.66
2023-02-22T12:18:22.059Z,8.66
2023-02-22T12:21:19.949Z,8.70
2023-02-22T12:24:18.722Z,8.69
2023-02-22T12:27:17.198Z,8.67
2023-02-22T12:30:19.317Z,8.69
2023-02-22T12:33:19.742Z,8.67
2023-02-22T12:36:19.039Z,8.69
2023-02-22T12:39:52.109Z,8.73
2023-02-22T12:43:02.079Z,8.79
2023-02-22T12:46:01.724Z,8.75
2023-02-22T12:49:00.866Z,8.80
2023-02-22T12:51:51.281Z,8.86
2023-02-22T12:54:51.723Z,8.80
2023-02-22T12:57:50.352Z,8.82
2023-02-22T13:00:58.787Z,8.84
2023-02-22T13:03:52.093Z,8.83
2023-02-22T13:07:09.002Z,8.75
2023-02-22T13:10:12.367Z,8.63
2023-02-22T13:13:29.831Z,8.46
2023-02-22T13:16:42.564Z,8.28
2023-02-22T13:19:44.185Z,8.20
2023-02-22T13:22:36.628Z,8.22
2023-02-22T13:25:31.483Z,8.34
2023-02-22T13:28:31.448Z,8.45
2023-02-22T13:31:41.187Z,8.46
2023-02-22T13:34:53.529Z,8.41
2023-02-22T13:38:07.465Z,8.39
2023-02-22T13:41:39.221Z,8.33
2023-02-22T13:44:57.360Z,8.24
2023-02-22T13:48:18.242Z,8.09
2023-02-22T13:51:24.440Z,8.00
2023-02-22T13:54:23.946Z,7.98
2023-02-22T13:57:23.710Z,7.94
2023-02-22T14:00:26.036Z,7.98
2023-02-22T14:03:42.543Z,7.98
2023-02-22T14:06:43.152Z,7.89
2023-02-22T14:09:50.883Z,7.85
2023-02-22T14:12:53.267Z,7.88
2023-02-22T14:16:22.853Z,7.88
2023-02-22T14:19:23.816Z,7.78
2023-02-22T14:22:26.911Z,7.71
2023-02-22T14:25:41.568Z,7.73
2023-02-22T14:28:43.108Z,7.73
2023-02-22T14:31:57.954Z,7.71
2023-02-22T14:34:58.844Z,7.72
2023-02-22T14:37:59.940Z,7.69
2023-02-22T14:40:48.433Z,7.63
2023-02-22T14:43:42.200Z,7.54
2023-02-22T14:46:40.751Z,7.52
2023-02-22T14:49:38.172Z,7.43
2023-02-22T14:52:33.891Z,7.32
2023-02-22T14:55:31.781Z,7.24
2023-02-22T14:58:21.768Z,7.17
2023-02-22T15:01:33.972Z,7.13
2023-02-22T15:04:31.134Z,7.09
2023-02-22T15:07:28.508Z,7.04
2023-02-22T15:10:25.244Z,7.02
2023-02-22T15:13:23.992Z,6.98
2023-02-22T15:16:17.395Z,6.93
2023-02-22T15:19:09.867Z,6.89
2023-02-22T15:22:09.275Z,6.85
2023-02-22T15:25:06.488Z,6.81
2023-02-22T15:28:04.545Z,6.77
2023-02-22T15:31:16.382Z,6.74
2023-02-22T15:34:24.681Z,6.72
2023-02-22T15:37:25.647Z,6.64
2023-02-22T15:40:21.006Z,6.57
2023-02-22T15:43:24.371Z,6.50
2023-02-22T15:46:17.370Z,6.43
2023-02-22T15:49:23.402Z,6.39
2023-02-22T15:52:24.089Z,6.38
2023-02-22T15:55:06.616Z,6.38
2023-02-22T15:58:02.880Z,6.38
2023-02-22T16:01:04.775Z,6.37
2023-02-22T16:03:53.330Z,6.35
2023-02-22T16:06:47.437Z,6.29
2023-02-22T16:09:40.326Z,6.25
2023-02-22T16:12:35.732Z,6.22
2023-02-22T16:15:49.568Z,6.18
2023-02-22T16:18:42.687Z,6.14
2023-02-22T16:22:00.084Z,6.10
2023-02-22T16:24:52.215Z,6.08
2023-02-22T16:27:48.561Z,6.05
2023-02-22T16:30:34.768Z,6.01
2023-02-22T16:33:33.837Z,5.96
2023-02-22T16:36:40.565Z,5.93
2023-02-22T16:39:36.275Z,5.89
2023-02-22T16:42:29.246Z,5.85
2023-02-22T16:45:23.194Z,5.82
2023-02-22T16:48:18.916Z,5.77
2023-02-22T16:51:18.995Z,5.70
2023-02-22T16:54:15.648Z,5.60
2023-02-22T16:57:12.918Z,5.52
2023-02-22T17:00:11.339Z,5.46
2023-02-22T17:03:07.814Z,5.40
2023-02-22T17:06:00.786Z,5.35
2023-02-22T17:08:53.745Z,5.29
2023-02-22T17:11:48.382Z,5.23
2023-02-22T17:14:46.127Z,5.16
2023-02-22T17:17:40.592Z,5.12
2023-02-22T17:20:33.675Z,5.12
2023-02-22T17:23:28.158Z,5.14
2023-02-22T17:26:21.081Z,5.15
2023-02-22T17:29:15.361Z,5.16
2023-02-22T17:32:08.874Z,5.16
2023-02-22T17:34:53.544Z,5.14
2023-02-22T17:37:47.136Z,5.12
2023-02-22T17:40:33.089Z,5.07
2023-02-22T17:43:27.908Z,5.00
2023-02-22T17:46:21.248Z,4.93
2023-02-22T17:49:13.986Z,4.83
2023-02-22T17:52:06.440Z,4.73
2023-02-22T17:54:59.389Z,4.62
2023-02-22T17:57:59.105Z,4.54
2023-02-22T18:00:44.491Z,4.50
2023-02-22T18:03:39.596Z,4.48
2023-02-22T18:06:33.883Z,4.46
2023-02-22T18:09:27.316Z,4.40
2023-02-22T18:12:20.290Z,4.31
2023-02-22T18:15:17.490Z,4.22
2023-02-22T18:18:10.550Z,4.12
2023-02-22T18:21:04.254Z,4.01
2023-02-22T18:23:58.124Z,3.88
2023-02-22T18:26:51.200Z,3.79
2023-02-22T18:29:35.349Z,3.73
2023-02-22T18:32:47.246Z,3.70
2023-02-22T18:35:40.331Z,3.69
2023-02-22T18:38:26.593Z,3.68
2023-02-22T18:41:25.394Z,3.65
2023-02-22T18:44:18.551Z,3.59
2023-02-22T18:47:11.566Z,3.54
2023-02-22T18:50:04.505Z,3.48
2023-02-22T18:52:57.308Z,3.41
2023-02-22T18:55:43.389Z,3.35
2023-02-22T18:58:28.710Z,3.30
2023-02-22T19:01:22.504Z,3.22
2023-02-22T19:04:12.061Z,3.15
2023-02-22T19:07:05.228Z,3.12
2023-02-22T19:10:00.069Z,3.13
2023-02-22T19:12:52.966Z,3.12
2023-02-22T19:15:27.932Z,3.11
2023-02-22T19:18:13.050Z,3.07
2023-02-22T19:21:02.958Z,3.02
2023-02-22T19:23:57.018Z,2.97
2023-02-22T19:26:50.286Z,2.92
2023-02-22T19:29:23.881Z,2.88
2023-02-22T19:32:08.262Z,2.85
2023-02-22T19:35:06.860Z,2.84
2023-02-22T19:38:00.930Z,2.85
2023-02-22T19:40:44.659Z,2.87
2023-02-22T19:43:37.946Z,2.90
2023-02-22T19:46:31.404Z,2.90
2023-02-22T19:52:22.260Z,2.85
2023-02-22T19:55:16.027Z,2.79
2023-02-22T19:58:09.273Z,2.74
2023-02-22T20:01:03.201Z,2.67
2023-02-22T20:04:00.044Z,2.61
2023-02-22T20:06:55.252Z,2.56
2023-02-22T20:09:42.863Z,2.51
2023-02-22T20:12:36.118Z,2.51
2023-02-22T20:15:29.533Z,2.52
2023-02-22T20:18:23.097Z,2.56
2023-02-22T20:21:19.999Z,2.59
2023-02-22T20:24:16.375Z,2.57
2023-02-22T20:27:01.650Z,2.52
2023-02-22T20:29:48.072Z,2.46
2023-02-22T20:32:34.421Z,2.39
2023-02-22T20:35:28.267Z,2.30
2023-02-22T20:38:21.422Z,2.20
2023-02-22T20:41:22.600Z,2.09
2023-02-22T20:44:17.639Z,1.97
2023-02-22T20:47:10.941Z,1.88
2023-02-22T20:50:03.784Z,1.85
2023-02-22T20:52:58.939Z,1.81
2023-02-22T20:55:55.873Z,1.76
2023-02-22T20:58:49.371Z,1.70
2023-02-22T21:01:42.586Z,1.63
2023-02-22T21:04:36.505Z,1.52
2023-02-22T21:07:29.386Z,1.40
2023-02-22T21:10:23.099Z,1.27
2023-02-22T21:13:16.435Z,1.14
2023-02-22T21:16:11.501Z,1.02
2023-02-22T21:19:06.748Z,0.90
2023-02-22T21:22:06.788Z,0.81
2023-02-22T21:25:00.510Z,0.74
2023-02-22T21:27:53.804Z,0.69
2023-02-22T21:30:47.951Z,0.70
2023-02-22T21:33:35.438Z,0.73
2023-02-22T21:36:29.658Z,0.78
2023-02-22T21:39:22.738Z,0.83
2023-02-22T21:42:15.641Z,0.88
2023-02-22T21:45:10.119Z,0.93
2023-02-22T21:48:03.136Z,0.96
2023-02-22T21:50:56.354Z,0.95
2023-02-22T21:53:45.815Z,0.94
2023-02-22T21:56:35.824Z,0.91
2023-02-22T21:59:28.672Z,0.88
2023-02-22T22:02:22.317Z,0.85
2023-02-22T22:04:57.638Z,0.82
2023-02-22T22:07:51.397Z,0.78
2023-02-22T22:10:44.149Z,0.73
2023-02-22T22:13:37.842Z,0.73
2023-02-22T22:16:30.623Z,0.72
2023-02-22T22:19:24.052Z,0.72
2023-02-22T22:22:16.862Z,0.72
2023-02-22T22:25:12.079Z,0.71
2023-02-22T22:28:04.630Z,0.71
2023-02-22T22:30:49.156Z,0.69
2023-02-22T22:33:43.926Z,0.64
2023-02-22T22:36:29.657Z,0.58
2023-02-22T22:39:23.510Z,0.50
2023-02-22T22:42:17.418Z,0.39
2023-02-22T22:45:17.283Z,0.29
2023-02-22T22:48:14.869Z,0.17
2023-02-22T22:51:10.742Z,0.05
2023-02-22T22:54:03.839Z,-0.06
2023-02-22T22:56:56.739Z,-0.13
2023-02-22T22:59:42.150Z,-0.17
2023-02-22T23:02:38.143Z,-0.21
2023-02-22T23:05:31.763Z,-0.25
2023-02-22T23:08:29.374Z,-0.28
2023-02-22T23:11:22.292Z,-0.34
2023-02-22T23:14:15.133Z,-0.40
2023-02-22T23:17:29.196Z,-0.46
2023-02-22T23:20:14.640Z,-0.55
2023-02-22T23:23:13.393Z,-0.66
2023-02-22T23:26:18.013Z,-0.75
2023-02-22T23:29:03.674Z,-0.84
2023-02-22T23:31:56.494Z,-0.91
2023-02-22T23:34:42.203Z,-0.95
2023-02-22T23:37:35.628Z,-0.99
2023-02-22T23:40:29.245Z,-1.01
2023-02-22T23:43:33.723Z,-1.03
2023-02-22T23:46:27.232Z,-1.02
2023-02-22T23:49:20.767Z,-1.02
2023-02-22T23:52:16.079Z,-1.02
2023-02-22T23:55:10.233Z,-1.01
2023-02-22T23:58:03.576Z,-1.00
